Rockdale, Texas
Current Conditions -  °F | °C
As of 3:15 PM on Saturday 20 Dec 2014 (Local Time) from KT35 Reporting Station
Haze Haze  
Wind Chill: 51°   Ceiling: 800
Heat Index: 51°   Visibility: 5mi
Dew Point: 48°   Wind: 6mph
Humidity: 89%   Direction: 360°N
Pressure: 30.17"   Gusts: NA
Location:  30.66°N, 97°W
Report Text: KT35 202115Z AUTO 36005KT 5SM BR OVC008 11/09 A3017 RMK AO2 T01050087
Loading
Personal Weather Stations






























Interactive Weather Map New forecast layout! Learn more

10-Day Weather Forecast

Advertisements
Track Severe Weather on mobile